createdAt,value
2023-05-05T00:00:51.580Z,77.22
2023-05-05T00:01:43.526Z,78.49
2023-05-05T00:02:35.031Z,76.73
2023-05-05T00:03:26.999Z,77.55
2023-05-05T00:04:22.712Z,73.79
2023-05-05T00:05:14.792Z,77.24
2023-05-05T00:06:08.868Z,77.02
2023-05-05T00:07:03.458Z,76.92
2023-05-05T00:07:55.037Z,77.64
2023-05-05T00:08:47.377Z,77.27
2023-05-05T00:09:38.787Z,78.31
2023-05-05T00:10:30.479Z,75.54
2023-05-05T00:11:22.026Z,75.04
2023-05-05T00:12:13.392Z,77.33
2023-05-05T00:13:05.836Z,79.08
2023-05-05T00:13:57.426Z,79.22
2023-05-05T00:14:48.883Z,79.53
2023-05-05T00:15:45.109Z,77.97
2023-05-05T00:16:36.902Z,75.74
2023-05-05T00:17:28.464Z,76.67
2023-05-05T00:18:22.171Z,75.69
2023-05-05T00:19:13.585Z,77.29
2023-05-05T00:20:05.937Z,76.20
2023-05-05T00:20:57.514Z,76.95
2023-05-05T00:21:48.890Z,76.81
2023-05-05T00:22:42.725Z,79.76
2023-05-05T00:23:34.182Z,78.33
2023-05-05T00:24:27.034Z,75.63
2023-05-05T00:25:18.515Z,76.80
2023-05-05T00:26:11.980Z,75.66
2023-05-05T00:27:04.123Z,75.94
2023-05-05T00:27:56.363Z,77.90
2023-05-05T00:28:49.683Z,75.43
2023-05-05T00:29:41.129Z,77.05
2023-05-05T00:30:33.427Z,77.05
2023-05-05T00:31:25.125Z,77.35
2023-05-05T00:32:16.647Z,76.74
2023-05-05T00:33:08.456Z,76.63
2023-05-05T00:33:59.866Z,78.61
2023-05-05T00:34:51.895Z,79.42
2023-05-05T00:35:43.494Z,78.71
2023-05-05T00:36:34.931Z,78.89
2023-05-05T00:37:27.041Z,76.84
2023-05-05T00:38:18.522Z,76.73
2023-05-05T00:39:09.951Z,80.82
2023-05-05T00:40:01.427Z,76.34
2023-05-05T00:40:53.445Z,79.22
2023-05-05T00:41:44.950Z,76.11
2023-05-05T00:42:47.899Z,76.30
2023-05-05T00:43:39.322Z,78.33
2023-05-05T00:44:38.014Z,76.96
2023-05-05T00:45:30.162Z,78.08
2023-05-05T00:46:27.391Z,78.68
2023-05-05T00:47:19.868Z,81.26
2023-05-05T00:48:11.600Z,77.27
2023-05-05T00:49:03.229Z,78.58
2023-05-05T00:49:55.833Z,76.58
2023-05-05T00:50:47.697Z,77.74
2023-05-05T00:51:39.397Z,78.18
2023-05-05T00:52:31.457Z,77.91
2023-05-05T00:53:23.803Z,78.27
2023-05-05T00:54:15.564Z,79.40
2023-05-05T00:55:07.701Z,79.36
2023-05-05T00:55:59.288Z,79.99
2023-05-05T00:56:51.586Z,77.58
2023-05-05T00:57:44.409Z,78.97
2023-05-05T00:58:36.764Z,80.31
2023-05-05T00:59:33.321Z,78.91
2023-05-05T01:00:25.813Z,78.81
2023-05-05T01:01:17.449Z,78.37
2023-05-05T01:02:10.729Z,78.18
2023-05-05T01:03:03.071Z,79.20
2023-05-05T01:03:57.102Z,78.83
2023-05-05T01:04:49.008Z,79.48
2023-05-05T01:06:24.100Z,79.08
2023-05-05T01:07:40.827Z,80.10
2023-05-05T01:09:05.105Z,80.42
2023-05-05T01:10:15.185Z,79.66
2023-05-05T01:11:21.506Z,79.12
2023-05-05T01:12:13.216Z,80.36
2023-05-05T01:13:37.219Z,80.20
2023-05-05T01:14:45.013Z,80.45
2023-05-05T01:15:46.323Z,80.71
2023-05-05T01:16:47.521Z,79.13
2023-05-05T01:17:52.783Z,80.13
2023-05-05T01:19:12.110Z,78.39
2023-05-05T01:20:33.076Z,79.90
2023-05-05T01:21:51.735Z,79.40
2023-05-05T01:22:50.962Z,79.64
2023-05-05T01:24:18.257Z,79.46
2023-05-05T01:25:30.711Z,79.43
2023-05-05T01:26:54.088Z,80.06
2023-05-05T01:28:01.901Z,79.92
2023-05-05T01:29:24.534Z,81.56
2023-05-05T01:30:47.021Z,80.22
2023-05-05T01:32:01.586Z,80.83
2023-05-05T01:33:00.729Z,80.96
2023-05-05T01:33:59.655Z,81.87
2023-05-05T01:35:41.539Z,81.61
2023-05-05T01:36:39.848Z,79.96
2023-05-05T01:37:44.809Z,80.30
2023-05-05T01:38:45.274Z,81.19
2023-05-05T01:39:40.757Z,81.95
2023-05-05T01:40:39.034Z,82.11
2023-05-05T01:41:40.993Z,82.11
2023-05-05T01:42:36.096Z,81.10
2023-05-05T01:43:31.859Z,81.80
2023-05-05T01:44:23.867Z,81.83
2023-05-05T01:45:19.081Z,81.74
2023-05-05T01:46:13.653Z,82.35
2023-05-05T01:47:07.766Z,83.22
2023-05-05T01:48:06.543Z,83.51
2023-05-05T01:49:01.044Z,81.65
2023-05-05T01:49:53.404Z,83.01
2023-05-05T01:50:52.696Z,81.91
2023-05-05T01:51:47.888Z,81.13
2023-05-05T01:52:44.146Z,81.31
2023-05-05T01:53:37.556Z,81.30
2023-05-05T01:54:34.660Z,81.86
2023-05-05T01:55:29.039Z,81.15
2023-05-05T01:56:23.708Z,81.88
2023-05-05T01:57:17.191Z,81.94
2023-05-05T01:58:13.671Z,81.71
2023-05-05T01:59:07.023Z,83.25
2023-05-05T02:00:06.108Z,82.71
2023-05-05T02:01:06.683Z,82.82
2023-05-05T02:02:01.589Z,82.54
2023-05-05T02:02:59.659Z,84.13
2023-05-05T02:03:56.786Z,82.75
2023-05-05T02:04:53.007Z,84.96
2023-05-05T02:05:47.371Z,84.74
2023-05-05T02:06:41.186Z,82.94
2023-05-05T02:07:35.012Z,84.52
2023-05-05T02:08:29.108Z,85.13
2023-05-05T02:09:23.448Z,83.14
2023-05-05T02:10:15.197Z,83.43
2023-05-05T02:11:09.827Z,83.43
2023-05-05T02:12:05.777Z,83.28
2023-05-05T02:13:04.497Z,83.68
2023-05-05T02:13:56.249Z,84.42
2023-05-05T02:14:50.545Z,85.35
2023-05-05T02:15:44.240Z,85.39
2023-05-05T02:16:37.904Z,83.96
2023-05-05T02:17:30.815Z,85.54
2023-05-05T02:18:24.861Z,84.48
2023-05-05T02:19:18.985Z,83.77
2023-05-05T02:20:15.931Z,83.27
2023-05-05T02:21:09.115Z,82.71
2023-05-05T02:22:00.823Z,82.95
2023-05-05T02:22:53.801Z,83.90
2023-05-05T02:23:51.609Z,83.24
2023-05-05T02:24:44.468Z,83.95
2023-05-05T02:25:40.705Z,85.15
2023-05-05T02:26:37.362Z,83.74
2023-05-05T02:27:33.846Z,84.25
2023-05-05T02:28:38.673Z,86.37
2023-05-05T02:29:35.480Z,86.24
2023-05-05T02:30:32.333Z,86.92
2023-05-05T02:31:27.694Z,86.54
2023-05-05T02:32:31.889Z,87.85
2023-05-05T02:33:31.089Z,88.05
2023-05-05T02:34:27.592Z,88.07
2023-05-05T02:35:24.324Z,85.46
2023-05-05T02:36:26.164Z,84.97
2023-05-05T02:37:27.500Z,85.85
2023-05-05T02:38:29.236Z,84.87
2023-05-05T02:39:38.255Z,84.42
2023-05-05T02:40:39.153Z,85.47
2023-05-05T02:41:34.570Z,83.96
2023-05-05T02:42:36.455Z,85.14
2023-05-05T02:43:33.289Z,83.06
2023-05-05T02:44:27.847Z,85.18
2023-05-05T02:45:23.207Z,84.96
2023-05-05T02:46:17.960Z,83.93
2023-05-05T02:47:11.841Z,84.35
2023-05-05T02:48:04.254Z,84.48
2023-05-05T02:48:59.722Z,85.54
2023-05-05T02:49:51.409Z,83.71
2023-05-05T02:50:42.947Z,83.79
2023-05-05T02:51:43.329Z,82.79
2023-05-05T02:52:43.424Z,82.84
2023-05-05T02:53:35.986Z,82.95
2023-05-05T02:54:28.673Z,83.52
2023-05-05T02:55:20.320Z,82.72
2023-05-05T02:56:45.613Z,84.24
2023-05-05T02:57:42.675Z,84.01
2023-05-05T02:58:46.061Z,84.47
2023-05-05T02:59:56.584Z,83.87
2023-05-05T03:01:06.046Z,83.53
2023-05-05T03:02:28.507Z,83.49
2023-05-05T03:03:34.304Z,83.66
2023-05-05T03:04:39.585Z,84.64
2023-05-05T03:05:44.999Z,85.05
2023-05-05T03:06:41.478Z,85.49
2023-05-05T03:07:42.573Z,85.38
2023-05-05T03:08:43.966Z,84.18
2023-05-05T03:09:45.527Z,84.50
2023-05-05T03:10:51.979Z,84.98
2023-05-05T03:12:06.183Z,84.86
2023-05-05T03:13:10.631Z,85.36
2023-05-05T03:14:13.144Z,86.61
2023-05-05T03:15:10.200Z,86.74
2023-05-05T03:16:06.845Z,87.43
2023-05-05T03:17:01.730Z,86.75
2023-05-05T03:17:54.338Z,85.93
2023-05-05T03:18:49.812Z,85.89
2023-05-05T03:19:44.130Z,84.43
2023-05-05T03:20:38.977Z,85.12
2023-05-05T03:21:39.357Z,85.10
2023-05-05T03:22:36.113Z,84.71
2023-05-05T03:23:32.542Z,85.03
2023-05-05T03:24:24.857Z,84.91
2023-05-05T03:25:47.368Z,85.80
2023-05-05T03:26:53.345Z,85.98
2023-05-05T03:27:47.500Z,85.95
2023-05-05T03:28:42.903Z,85.11
2023-05-05T03:29:41.860Z,85.43
2023-05-05T03:30:38.038Z,83.43
2023-05-05T03:31:29.687Z,85.07
2023-05-05T03:32:24.365Z,85.15
2023-05-05T03:33:18.781Z,84.45
2023-05-05T03:34:10.378Z,83.81
2023-05-05T03:35:08.400Z,83.25
2023-05-05T03:35:59.882Z,84.59
2023-05-05T03:36:51.380Z,84.11
2023-05-05T03:37:44.989Z,83.96
2023-05-05T03:38:37.789Z,85.26
2023-05-05T03:39:29.493Z,85.35
2023-05-05T03:40:36.184Z,85.27
2023-05-05T03:41:32.262Z,84.54
2023-05-05T03:42:24.338Z,84.82
2023-05-05T03:43:15.985Z,85.04
2023-05-05T03:44:07.843Z,84.88
2023-05-05T03:45:01.565Z,84.73
2023-05-05T03:45:55.535Z,84.10
2023-05-05T03:46:47.218Z,84.22
2023-05-05T03:47:44.019Z,82.98
2023-05-05T03:48:39.853Z,84.17
2023-05-05T03:49:32.092Z,84.24
2023-05-05T03:50:24.348Z,84.80
2023-05-05T03:51:16.357Z,84.00
2023-05-05T03:52:15.455Z,83.77
2023-05-05T03:53:08.363Z,84.72
2023-05-05T03:53:59.762Z,84.30
2023-05-05T03:54:51.865Z,84.49
2023-05-05T03:55:43.527Z,84.26
2023-05-05T03:56:35.886Z,86.17
2023-05-05T03:57:27.401Z,85.27
2023-05-05T03:58:18.848Z,84.63
2023-05-05T03:59:10.527Z,84.76
2023-05-05T04:00:02.008Z,84.31
2023-05-05T04:00:54.977Z,85.36
2023-05-05T04:01:49.056Z,86.57
2023-05-05T04:02:45.920Z,87.09
2023-05-05T04:03:39.643Z,85.87
2023-05-05T04:04:31.179Z,85.16
2023-05-05T04:05:23.329Z,86.18
2023-05-05T04:06:14.905Z,84.77
2023-05-05T04:07:06.464Z,85.14
2023-05-05T04:07:58.443Z,85.36
2023-05-05T04:08:50.502Z,85.84
2023-05-05T04:09:44.582Z,86.15
2023-05-05T04:10:36.870Z,85.87
2023-05-05T04:11:29.765Z,86.06
2023-05-05T04:12:22.028Z,86.12
2023-05-05T04:13:13.695Z,87.85
2023-05-05T04:14:07.818Z,86.21
2023-05-05T04:14:59.285Z,87.13
2023-05-05T04:15:50.863Z,86.16
2023-05-05T04:16:46.426Z,87.05
2023-05-05T04:17:40.275Z,86.98
2023-05-05T04:18:34.458Z,86.21
2023-05-05T04:19:26.091Z,86.22
2023-05-05T04:20:19.922Z,85.78
2023-05-05T04:21:11.316Z,87.46
2023-05-05T04:22:03.315Z,86.56
2023-05-05T04:22:55.220Z,86.84
2023-05-05T04:23:47.805Z,86.04
2023-05-05T04:24:39.558Z,85.98
2023-05-05T04:25:31.559Z,87.07
2023-05-05T04:26:23.289Z,85.44
2023-05-05T04:27:14.822Z,85.89
2023-05-05T04:28:06.371Z,87.07
2023-05-05T04:28:57.907Z,86.59
2023-05-05T04:29:49.392Z,86.94
2023-05-05T04:30:40.922Z,86.74
2023-05-05T04:31:32.433Z,87.42
2023-05-05T04:32:24.442Z,86.92
2023-05-05T04:33:16.473Z,88.00
2023-05-05T04:34:08.100Z,87.32
2023-05-05T04:34:59.605Z,87.08
2023-05-05T04:35:51.335Z,86.18
2023-05-05T04:36:44.005Z,87.17
2023-05-05T04:37:35.673Z,85.90
2023-05-05T04:38:27.653Z,86.59
2023-05-05T04:39:19.796Z,86.11
2023-05-05T04:40:11.973Z,86.51
2023-05-05T04:41:10.613Z,85.62
2023-05-05T04:42:03.758Z,85.45
2023-05-05T04:42:55.258Z,85.66
2023-05-05T04:43:47.042Z,85.89
2023-05-05T04:44:41.906Z,86.00
2023-05-05T04:45:33.466Z,85.84
2023-05-05T04:46:27.249Z,85.90
2023-05-05T04:47:18.910Z,86.34
2023-05-05T04:48:10.630Z,85.84
2023-05-05T04:49:04.962Z,85.92
2023-05-05T04:49:57.350Z,85.29
2023-05-05T04:50:48.853Z,85.83
2023-05-05T04:51:43.647Z,86.47
2023-05-05T04:52:35.250Z,86.96
2023-05-05T04:53:26.683Z,86.71
2023-05-05T04:54:19.002Z,86.53
2023-05-05T04:55:11.468Z,87.57
2023-05-05T04:56:03.381Z,85.51
2023-05-05T04:56:55.620Z,85.45
2023-05-05T04:57:47.061Z,86.33
2023-05-05T04:58:38.488Z,85.90
2023-05-05T04:59:31.231Z,84.80
2023-05-05T05:00:23.260Z,83.96
2023-05-05T05:01:14.679Z,85.76
2023-05-05T05:02:06.378Z,84.81
2023-05-05T05:02:58.077Z,84.70
2023-05-05T05:03:49.723Z,84.86
2023-05-05T05:04:41.366Z,84.66
2023-05-05T05:05:36.166Z,84.68
2023-05-05T05:06:29.264Z,84.76
2023-05-05T05:07:21.201Z,85.03
2023-05-05T05:08:12.668Z,85.28
2023-05-05T05:09:04.789Z,85.95
2023-05-05T05:09:56.578Z,85.90
2023-05-05T05:10:48.096Z,83.80
2023-05-05T05:11:39.549Z,82.91
2023-05-05T05:12:31.119Z,82.70
2023-05-05T05:13:22.784Z,83.67
2023-05-05T05:14:15.441Z,84.18
2023-05-05T05:15:07.933Z,84.46
2023-05-05T05:16:00.865Z,83.88
2023-05-05T05:16:52.864Z,84.11
2023-05-05T05:17:46.786Z,85.82
2023-05-05T05:18:38.326Z,86.15
2023-05-05T05:19:29.831Z,84.59
2023-05-05T05:20:24.392Z,84.04
2023-05-05T05:21:15.858Z,83.39
2023-05-05T05:22:07.312Z,83.14
2023-05-05T05:23:02.484Z,81.34
2023-05-05T05:23:55.486Z,81.93
2023-05-05T05:24:47.006Z,81.01
2023-05-05T05:25:42.783Z,81.96
2023-05-05T05:26:37.239Z,81.73
2023-05-05T05:27:30.978Z,80.66
2023-05-05T05:28:25.224Z,80.89
2023-05-05T05:29:21.720Z,80.75
2023-05-05T05:30:13.866Z,80.35
2023-05-05T05:31:05.484Z,80.35
2023-05-05T05:31:57.254Z,80.68
2023-05-05T05:32:48.784Z,82.36
2023-05-05T05:33:40.970Z,80.77
2023-05-05T05:34:33.683Z,81.46
2023-05-05T05:35:25.412Z,82.06
2023-05-05T05:36:16.847Z,81.02
2023-05-05T05:37:08.628Z,83.03
2023-05-05T05:38:00.624Z,82.12
2023-05-05T05:38:55.036Z,83.10
2023-05-05T05:39:52.266Z,81.77
2023-05-05T05:40:44.909Z,81.55
2023-05-05T05:41:36.532Z,83.32
2023-05-05T05:42:28.439Z,82.16
2023-05-05T05:43:22.658Z,83.53
2023-05-05T05:44:14.766Z,83.83
2023-05-05T05:45:07.413Z,82.92
2023-05-05T05:45:59.020Z,82.33
2023-05-05T05:46:53.124Z,81.87
2023-05-05T05:47:44.700Z,83.34
2023-05-05T05:48:36.202Z,83.91
2023-05-05T05:49:28.190Z,82.53
2023-05-05T05:50:21.061Z,82.22
2023-05-05T05:51:12.496Z,81.79
2023-05-05T05:52:04.473Z,83.28
2023-05-05T05:52:56.143Z,83.12
2023-05-05T05:53:47.902Z,82.96
2023-05-05T05:54:39.373Z,81.72
2023-05-05T05:55:31.007Z,82.18
2023-05-05T05:56:23.052Z,82.84
2023-05-05T05:57:15.354Z,82.90
2023-05-05T05:58:07.038Z,82.30
2023-05-05T05:58:58.515Z,82.20
2023-05-05T05:59:51.713Z,81.26
2023-05-05T06:00:43.418Z,82.38
2023-05-05T06:01:36.179Z,81.87
2023-05-05T06:02:29.089Z,82.55
2023-05-05T06:03:20.909Z,79.92
2023-05-05T06:04:13.135Z,79.95
2023-05-05T06:05:05.343Z,80.35
2023-05-05T06:05:58.848Z,81.74
2023-05-05T06:06:50.757Z,81.75
2023-05-05T06:07:42.371Z,81.66
2023-05-05T06:08:34.505Z,82.59
2023-05-05T06:09:26.171Z,81.39
2023-05-05T06:10:27.836Z,80.97
2023-05-05T06:11:25.741Z,81.41
2023-05-05T06:12:17.307Z,81.29
2023-05-05T06:13:11.617Z,81.00
2023-05-05T06:14:06.926Z,81.58
2023-05-05T06:14:58.360Z,82.26
2023-05-05T06:15:50.212Z,82.46
2023-05-05T06:16:42.581Z,82.69
2023-05-05T06:17:40.912Z,82.95
2023-05-05T06:18:32.346Z,82.29
2023-05-05T06:19:23.865Z,81.66
2023-05-05T06:20:15.573Z,81.92
2023-05-05T06:21:07.074Z,82.12
2023-05-05T06:21:58.559Z,79.81
2023-05-05T06:22:50.054Z,80.95
2023-05-05T06:23:42.134Z,80.42
2023-05-05T06:24:33.637Z,80.37
2023-05-05T06:25:26.146Z,79.52
2023-05-05T06:26:17.918Z,82.43
2023-05-05T06:27:09.312Z,82.10
2023-05-05T06:28:00.782Z,79.52
2023-05-05T06:28:52.221Z,79.77
2023-05-05T06:29:43.638Z,78.67
2023-05-05T06:30:35.055Z,81.37
2023-05-05T06:31:26.642Z,79.36
2023-05-05T06:32:20.218Z,78.72
2023-05-05T06:33:11.619Z,80.67
2023-05-05T06:34:03.061Z,78.33
2023-05-05T06:34:57.547Z,76.21
2023-05-05T06:35:51.170Z,75.43
2023-05-05T06:36:42.722Z,77.39
2023-05-05T06:37:37.018Z,77.47
2023-05-05T06:38:28.388Z,75.80
2023-05-05T06:39:19.892Z,78.86
2023-05-05T06:40:11.870Z,75.79
2023-05-05T06:41:03.700Z,75.65
2023-05-05T06:41:55.082Z,76.25
2023-05-05T06:42:49.674Z,76.53
2023-05-05T06:43:46.840Z,77.91
2023-05-05T06:44:41.340Z,75.75
2023-05-05T06:45:33.043Z,78.63
2023-05-05T06:46:24.628Z,79.76
2023-05-05T06:47:16.111Z,76.71
2023-05-05T06:48:08.870Z,76.73
2023-05-05T06:49:00.559Z,78.53
2023-05-05T06:49:52.213Z,76.75
2023-05-05T06:50:43.633Z,78.48
2023-05-05T06:51:35.474Z,78.47
2023-05-05T06:52:26.947Z,78.02
2023-05-05T06:53:18.406Z,76.29
2023-05-05T06:54:09.795Z,77.41
2023-05-05T06:55:01.406Z,78.14
2023-05-05T06:55:52.844Z,78.01
2023-05-05T06:56:46.519Z,77.25
2023-05-05T06:57:40.388Z,77.70
2023-05-05T06:58:31.821Z,75.13
2023-05-05T06:59:23.251Z,74.79
2023-05-05T07:00:16.776Z,77.68
2023-05-05T07:01:10.353Z,78.30
2023-05-05T07:02:01.876Z,76.68
2023-05-05T07:02:53.707Z,77.56
2023-05-05T07:03:45.143Z,76.59
2023-05-05T07:04:37.079Z,77.44
2023-05-05T07:05:28.584Z,78.49
2023-05-05T07:06:19.975Z,78.43
2023-05-05T07:07:11.809Z,78.37
2023-05-05T07:08:03.340Z,77.91
2023-05-05T07:08:54.805Z,79.42
2023-05-05T07:09:48.613Z,77.46
2023-05-05T07:10:40.367Z,77.46
2023-05-05T07:11:31.835Z,75.30
2023-05-05T07:12:23.364Z,76.55
2023-05-05T07:13:17.568Z,72.18
2023-05-05T07:14:10.314Z,70.77
2023-05-05T07:15:12.146Z,72.59
2023-05-05T07:16:07.359Z,73.87
2023-05-05T07:16:58.876Z,72.67
2023-05-05T07:17:51.162Z,73.41
2023-05-05T07:18:42.779Z,71.87
2023-05-05T07:19:34.495Z,71.77
2023-05-05T07:20:26.153Z,71.97
2023-05-05T07:21:17.625Z,70.40
2023-05-05T07:22:08.975Z,71.96
2023-05-05T07:23:00.738Z,71.10
2023-05-05T07:23:52.353Z,70.88
2023-05-05T07:24:43.806Z,73.49
2023-05-05T07:25:35.914Z,74.29
2023-05-05T07:26:32.632Z,71.40
2023-05-05T07:27:24.440Z,70.73
2023-05-05T07:28:16.537Z,73.96
2023-05-05T07:29:08.048Z,70.57
2023-05-05T07:30:02.811Z,74.55
2023-05-05T07:30:56.153Z,72.14
2023-05-05T07:31:47.588Z,69.77
2023-05-05T07:32:39.017Z,72.79
2023-05-05T07:33:30.438Z,70.57
2023-05-05T07:34:22.100Z,71.75
2023-05-05T07:35:13.708Z,70.94
2023-05-05T07:36:05.482Z,69.64
2023-05-05T07:36:56.985Z,72.00
2023-05-05T07:37:48.552Z,72.61
2023-05-05T07:38:40.034Z,73.02
2023-05-05T07:39:32.156Z,72.88
2023-05-05T07:40:26.822Z,69.59
2023-05-05T07:41:19.282Z,68.78
2023-05-05T07:42:10.936Z,69.30
2023-05-05T07:43:03.066Z,69.28
2023-05-05T07:43:54.560Z,72.82
2023-05-05T07:44:46.003Z,69.94
2023-05-05T07:45:37.405Z,73.36
2023-05-05T07:46:31.306Z,68.17
2023-05-05T07:47:22.872Z,70.28
2023-05-05T07:48:16.573Z,72.82
2023-05-05T07:49:08.029Z,70.33
2023-05-05T07:50:01.073Z,71.83
2023-05-05T07:50:53.008Z,67.48
2023-05-05T07:51:44.916Z,68.47
2023-05-05T07:52:46.759Z,71.75
2023-05-05T07:53:41.323Z,71.26
2023-05-05T07:54:32.863Z,69.62
2023-05-05T07:55:24.377Z,71.98
2023-05-05T07:56:15.861Z,71.27
2023-05-05T07:57:07.253Z,70.48
2023-05-05T07:57:58.739Z,71.07
2023-05-05T07:58:50.535Z,70.99
2023-05-05T07:59:43.822Z,71.81
2023-05-05T08:00:35.678Z,70.27
2023-05-05T08:01:27.116Z,69.83
2023-05-05T08:02:21.573Z,70.29
2023-05-05T08:03:13.127Z,70.22
2023-05-05T08:04:07.552Z,70.85
2023-05-05T08:05:00.358Z,71.25
2023-05-05T08:05:54.638Z,69.89
2023-05-05T08:06:46.344Z,69.67
2023-05-05T08:07:41.104Z,71.90
2023-05-05T08:08:32.817Z,68.15
2023-05-05T08:09:25.433Z,71.63
2023-05-05T08:10:16.931Z,70.03
2023-05-05T08:11:08.387Z,70.62
2023-05-05T08:12:01.310Z,69.62
2023-05-05T08:12:55.264Z,69.20
2023-05-05T08:13:46.847Z,66.21
2023-05-05T08:14:40.444Z,65.18
2023-05-05T08:15:31.917Z,67.88
2023-05-05T08:16:23.319Z,65.35
2023-05-05T08:17:15.077Z,65.43
2023-05-05T08:18:06.663Z,63.67
2023-05-05T08:18:58.214Z,64.49
2023-05-05T08:19:51.860Z,65.34
2023-05-05T08:20:43.223Z,64.40
2023-05-05T08:21:34.649Z,64.50
2023-05-05T08:22:26.281Z,67.84
2023-05-05T08:23:17.663Z,66.47
2023-05-05T08:24:09.151Z,67.87
2023-05-05T08:25:00.641Z,67.60
2023-05-05T08:25:52.295Z,64.45
2023-05-05T08:26:43.734Z,67.06
2023-05-05T08:27:35.389Z,65.61
2023-05-05T08:28:26.823Z,65.20
2023-05-05T08:29:18.280Z,60.56
2023-05-05T08:30:10.225Z,60.82
2023-05-05T08:31:01.992Z,62.55
2023-05-05T08:31:53.473Z,63.28
2023-05-05T08:32:44.999Z,64.67
2023-05-05T08:33:36.621Z,65.43
2023-05-05T08:34:28.060Z,65.83
2023-05-05T08:35:22.262Z,62.38
2023-05-05T08:36:16.110Z,60.42
2023-05-05T08:37:09.607Z,61.46
2023-05-05T08:38:01.002Z,60.88
2023-05-05T08:38:55.282Z,66.52
2023-05-05T08:39:49.268Z,61.68
2023-05-05T08:40:41.587Z,61.94
2023-05-05T08:41:33.084Z,61.05
2023-05-05T08:42:36.136Z,61.15
2023-05-05T08:43:29.781Z,62.13
2023-05-05T08:44:21.825Z,61.73
2023-05-05T08:45:13.343Z,62.19
2023-05-05T08:46:05.459Z,60.62
2023-05-05T08:47:01.602Z,60.71
2023-05-05T08:47:59.238Z,61.55
2023-05-05T08:48:55.446Z,66.74
2023-05-05T08:49:47.780Z,63.45
2023-05-05T08:50:40.460Z,63.76
2023-05-05T08:51:42.737Z,63.63
2023-05-05T08:52:44.185Z,62.84
2023-05-05T08:54:05.089Z,63.14
2023-05-05T08:55:14.451Z,62.47
2023-05-05T08:56:08.020Z,63.44
2023-05-05T08:57:57.124Z,63.01
2023-05-05T08:58:28.806Z,61.16
2023-05-05T08:59:37.904Z,64.01
2023-05-05T09:00:46.368Z,61.68
2023-05-05T09:01:38.186Z,60.86
2023-05-05T09:02:31.179Z,59.84
2023-05-05T09:03:23.507Z,63.50
2023-05-05T09:04:15.925Z,61.68
2023-05-05T09:05:08.411Z,62.67
2023-05-05T09:06:00.012Z,63.21
2023-05-05T09:06:51.582Z,64.08
2023-05-05T09:07:44.250Z,62.89
2023-05-05T09:08:38.369Z,63.42
2023-05-05T09:09:30.686Z,64.00
2023-05-05T09:10:22.143Z,63.82
2023-05-05T09:11:13.687Z,63.43
2023-05-05T09:12:05.668Z,62.67
2023-05-05T09:12:57.375Z,62.49
2023-05-05T09:13:49.709Z,61.30
2023-05-05T09:14:41.222Z,60.92
2023-05-05T09:15:33.149Z,61.79
2023-05-05T09:16:24.739Z,61.86
2023-05-05T09:17:25.871Z,61.31
2023-05-05T09:18:19.816Z,59.76
2023-05-05T09:19:12.565Z,60.32
2023-05-05T09:20:09.440Z,60.38
2023-05-05T09:21:22.579Z,60.49
2023-05-05T09:22:14.092Z,63.49
2023-05-05T09:23:14.630Z,62.09
2023-05-05T09:24:11.627Z,61.54
2023-05-05T09:25:07.482Z,60.63
2023-05-05T09:26:05.132Z,62.95
2023-05-05T09:26:59.092Z,59.98
2023-05-05T09:27:50.637Z,62.28
2023-05-05T09:28:52.617Z,60.08
2023-05-05T09:29:49.850Z,62.27
2023-05-05T09:30:43.827Z,59.43
2023-05-05T09:31:37.048Z,62.55
2023-05-05T09:32:30.591Z,60.96
2023-05-05T09:33:31.663Z,61.14
2023-05-05T09:34:23.616Z,58.60
2023-05-05T09:35:16.932Z,60.34
2023-05-05T09:36:08.620Z,59.89
2023-05-05T09:37:00.043Z,58.64
2023-05-05T09:37:51.489Z,62.83
2023-05-05T09:39:02.839Z,60.82
2023-05-05T09:39:55.452Z,60.07
2023-05-05T09:40:49.469Z,61.78
2023-05-05T09:41:44.222Z,62.97
2023-05-05T09:42:39.341Z,59.78
2023-05-05T09:43:49.402Z,61.27
2023-05-05T09:44:41.139Z,62.24
2023-05-05T09:45:32.591Z,62.21
2023-05-05T09:46:24.310Z,62.03
2023-05-05T09:47:28.557Z,62.29
2023-05-05T09:48:30.076Z,62.82
2023-05-05T09:49:26.766Z,64.35
2023-05-05T09:50:19.170Z,61.41
2023-05-05T09:51:11.233Z,63.36
2023-05-05T09:52:16.022Z,61.66
2023-05-05T09:53:09.348Z,63.76
2023-05-05T09:54:00.971Z,63.20
2023-05-05T09:54:57.073Z,62.84
2023-05-05T09:56:00.493Z,61.04
2023-05-05T09:56:52.625Z,63.76
2023-05-05T09:57:44.151Z,61.96
2023-05-05T09:58:36.277Z,61.47
2023-05-05T09:59:27.807Z,61.41
2023-05-05T10:00:20.290Z,61.89
2023-05-05T10:01:24.333Z,61.48
2023-05-05T10:02:16.163Z,61.63
2023-05-05T10:03:07.718Z,61.81
2023-05-05T10:03:59.187Z,62.26
2023-05-05T10:04:50.631Z,61.23
2023-05-05T10:05:50.614Z,60.33
2023-05-05T10:06:48.100Z,60.79
2023-05-05T10:07:42.198Z,61.36
2023-05-05T10:08:34.224Z,59.72
2023-05-05T10:09:27.270Z,60.53
2023-05-05T10:10:19.154Z,61.16
2023-05-05T10:11:10.956Z,63.54
2023-05-05T10:12:04.926Z,62.52
2023-05-05T10:12:58.525Z,60.53
2023-05-05T10:13:50.220Z,63.71
2023-05-05T10:14:43.296Z,62.39
2023-05-05T10:15:37.014Z,64.73
2023-05-05T10:16:31.271Z,61.17
2023-05-05T10:17:23.513Z,58.98
2023-05-05T10:18:21.068Z,59.67
2023-05-05T10:19:16.452Z,62.02
2023-05-05T10:20:12.791Z,61.81
2023-05-05T10:21:04.666Z,59.88
2023-05-05T10:22:03.919Z,60.79
2023-05-05T10:22:59.750Z,59.93
2023-05-05T10:24:03.125Z,59.83
2023-05-05T10:25:03.513Z,56.00
2023-05-05T10:26:03.570Z,58.17
2023-05-05T10:26:58.654Z,58.83
2023-05-05T10:27:54.732Z,60.36
2023-05-05T10:28:56.071Z,59.46
2023-05-05T10:29:55.694Z,57.17
2023-05-05T10:30:57.740Z,58.56
2023-05-05T10:31:54.100Z,56.99
2023-05-05T10:33:00.861Z,54.95
2023-05-05T10:34:04.189Z,54.69
2023-05-05T10:35:01.396Z,55.29
2023-05-05T10:35:56.523Z,55.08
2023-05-05T10:36:55.054Z,54.06
2023-05-05T10:37:47.399Z,53.46
2023-05-05T10:38:39.162Z,55.08
2023-05-05T10:39:31.485Z,54.87
2023-05-05T10:40:24.000Z,54.72
2023-05-05T10:41:18.951Z,57.42
2023-05-05T10:42:13.588Z,56.00
2023-05-05T10:43:05.171Z,55.16
2023-05-05T10:43:57.580Z,55.34
2023-05-05T10:44:49.315Z,53.04
2023-05-05T10:45:44.788Z,54.93
2023-05-05T10:46:36.932Z,52.20
2023-05-05T10:47:29.409Z,53.62
2023-05-05T10:48:51.324Z,54.08
2023-05-05T10:49:48.906Z,50.99
2023-05-05T10:51:09.241Z,52.86
2023-05-05T10:52:08.597Z,53.40
2023-05-05T10:53:32.016Z,50.45
2023-05-05T10:54:38.323Z,52.58
2023-05-05T10:55:45.275Z,52.23
2023-05-05T10:56:40.671Z,50.38
2023-05-05T10:57:39.030Z,50.74
2023-05-05T10:58:47.054Z,55.82
2023-05-05T10:59:47.819Z,55.00
2023-05-05T11:00:39.477Z,53.66
2023-05-05T11:01:37.633Z,54.61
2023-05-05T11:02:30.157Z,53.55
2023-05-05T11:03:23.029Z,52.07
2023-05-05T11:04:24.098Z,53.78
2023-05-05T11:05:21.947Z,51.14
2023-05-05T11:06:13.559Z,53.42
2023-05-05T11:07:07.962Z,56.94
2023-05-05T11:08:26.287Z,52.91
2023-05-05T11:09:28.578Z,52.01
2023-05-05T11:10:21.198Z,55.04
2023-05-05T11:11:13.084Z,56.85
2023-05-05T11:12:06.260Z,55.16
2023-05-05T11:12:59.483Z,53.48
2023-05-05T11:14:22.342Z,56.07
2023-05-05T11:15:28.278Z,55.90
2023-05-05T11:16:43.681Z,57.36
2023-05-05T11:17:47.721Z,56.98
2023-05-05T11:18:44.198Z,57.09
2023-05-05T11:19:48.232Z,59.30
2023-05-05T11:20:43.692Z,58.45
2023-05-05T11:22:01.679Z,57.94
2023-05-05T11:23:05.293Z,57.93
2023-05-05T11:24:29.874Z,57.71
2023-05-05T11:25:41.994Z,58.02
2023-05-05T11:26:51.200Z,58.30
2023-05-05T11:28:05.812Z,60.23
2023-05-05T11:29:02.866Z,61.08
2023-05-05T11:30:11.090Z,59.47
2023-05-05T11:31:02.660Z,64.29
2023-05-05T11:32:26.683Z,63.29
2023-05-05T11:33:28.661Z,61.67
2023-05-05T11:34:29.267Z,66.79
2023-05-05T11:35:21.011Z,70.62
2023-05-05T11:36:17.847Z,72.60
2023-05-05T11:37:09.637Z,69.91
2023-05-05T11:38:06.294Z,72.80
2023-05-05T11:39:17.402Z,75.12
2023-05-05T11:40:23.650Z,78.79
2023-05-05T11:41:30.568Z,80.06
2023-05-05T11:42:26.310Z,76.22
2023-05-05T11:43:23.379Z,80.22
2023-05-05T11:44:15.902Z,82.32
2023-05-05T11:45:22.207Z,82.14
2023-05-05T11:46:17.295Z,83.53
2023-05-05T11:47:11.428Z,84.13
2023-05-05T11:48:28.495Z,84.25
2023-05-05T11:49:37.119Z,83.75
2023-05-05T11:50:33.209Z,89.14
2023-05-05T11:51:25.468Z,85.90
2023-05-05T11:52:16.959Z,88.91
2023-05-05T11:53:08.736Z,90.23
2023-05-05T11:54:02.825Z,89.77
2023-05-05T11:55:00.752Z,92.80